Princeton, Florida
Current Conditions -  °F | °C
As of 5:58 AM on Friday 28 Nov 2014 (Local Time) from KHST Reporting Station
Clear Clear  
Wind Chill: 54°   Ceiling: Unl
Heat Index: 54°   Visibility: 10mi
Dew Point: 43°   Wind: 16mph
Humidity: 68%   Direction: 330°NNW
Pressure: 30.18"   Gusts: NA
Location:  25.5445°N, 80.4236°W
Report Text: KHST 281058Z AUTO 33014KT 10SM CLR 12/06 A3018 RMK AO2 SLP223 T01210063 $
Loading
Personal Weather Stations






























Interactive Weather Map New forecast layout! Learn more

10-Day Weather Forecast

Advertisements
Track Severe Weather on mobile